ADDS METAR Data INFO
IDs: Format: Raw Decoded Include TAF

Data at: 1717 UTC 23 Oct 2017

KSNY 231653Z AUTO 35024G35KT 10SM OVC110 11/M06 A3037 RMK AO2 PK WND 36039/1630 SLP272 T01061061
KSNY 231553Z AUTO 35025G34KT 10SM SCT095 BKN110 11/M06 A3036 RMK AO2 PK WND 35038/1536 SLP271 T01061061
KSNY 231453Z AUTO 35019G29KT 10SM OVC090 08/M06 A3035 RMK AO2 PK WND 33029/1447 SLP265 T00831061 53018
KSNY 231353Z AUTO 33014G21KT 10SM OVC070 07/M04 A3032 RMK AO2 PK WND 33031/1301 SLP263 T00721044
KSNY 231253Z AUTO 33016G26KT 10SM OVC065 07/M03 A3031 RMK AO2 PK WND 34031/1208 SLP250 T00721028
KSNY 231153Z AUTO 32014KT 10SM OVC055 07/M01 A3029 RMK AO2 SLP243 T00721011 10144 20067 51040
KSNY 231053Z AUTO 35015G25KT 10SM SCT075 BKN090 07/01 A3026 RMK AO2 PK WND 35031/0955 SLP229 T00670006
KSNY 230953Z AUTO 36028G31KT 10SM SCT070 BKN095 09/01 A3022 RMK AO2 PK WND 36032/0953 PRESRR SLP207 T00890011
KSNY 230853Z AUTO 35018G23KT 10SM FEW085 11/01 A3016 RMK AO2 PK WND 35029/0824 WSHFT 0813 SLP179 T01060006 53023
KSNY 230833Z AUTO 35019G29KT 10SM CLR 12/00 A3015 RMK AO2 PK WND 35029/0824 WSHFT 0813 T01170000
KSNY 230753Z AUTO 30016KT 10SM CLR 14/M01 A3011 RMK AO2 SLP157 T01391006
KSNY 230653Z AUTO 28010KT 10SM CLR 11/M01 A3009 RMK AO2 SLP159 T01111011 402281056
KSNY 230553Z AUTO 28009KT 10SM CLR 09/M02 A3008 RMK AO2 SLP159 T00941017 10167 20067 51008
KSNY 230453Z AUTO 28011KT 10SM CLR 11/M02 A3008 RMK AO2 SLP161 T01061017
KSNY 230353Z AUTO 28010KT 10SM CLR 09/M02 A3007 RMK AO2 SLP164 T00891022
KSNY 230253Z AUTO 28011KT 10SM CLR 12/M02 A3006 RMK AO2 SLP164 T01221022 53008
KSNY 230153Z AUTO 29008KT 10SM CLR 09/M03 A3004 RMK AO2 SLP176 T00941028
KSNY 230053Z AUTO 28008KT 10SM CLR 13/M03 A3004 RMK AO2 SLP176 T01331028
KSNY 222353Z AUTO 31007KT 10SM CLR 15/M02 A3003 RMK AO2 SLP170 T01501022 10228 20150 53000
KSNY 222253Z AUTO 31010KT 10SM CLR 18/M02 A3003 RMK AO2 SLP164 T01781017
KSNY 222153Z AUTO 31017G26KT 10SM CLR 21/M02 A3002 RMK AO2 PK WND 30034/2119 SLP161 T02061022
KSNY 222053Z AUTO 28018G23KT 10SM CLR 23/M02 A3003 RMK AO2 PK WND 28026/2036 SLP154 T02281022 56024
KSNY 221953Z AUTO 27016G24KT 10SM CLR 21/M02 A3004 RMK AO2 PK WND 28026/1919 SLP158 T02111022
KSNY 221853Z AUTO 27019G28KT 10SM CLR 19/M03 A3007 RMK AO2 PK WND 29029/1757 SLP166 T01941033
KSNY 221753Z AUTO 27015G24KT 10SM CLR 19/M03 A3011 RMK AO2 WSHFT 1731 SLP179 T01891033 10189 21033 56013
KSNY 221751Z AUTO 28020G24KT 10SM CLR 19/M03 A3011 RMK AO2 WSHFT 1731
KSNY 221653Z AUTO 25012G21KT 10SM CLR 16/M06 A3013 RMK AO2 SLP194 T01561061
KSNY 221553Z AUTO 23014KT 10SM CLR 13/M06 A3015 RMK AO2 SLP206 T01281061
KSNY 221453Z AUTO 21012KT 10SM CLR 07/M07 A3015 RMK AO2 SLP213 T00721067 51010
KSNY 221353Z AUTO 22008KT 10SM CLR 01/M06 A3014 RMK AO2 SLP219 T00111061
KSNY 221253Z AUTO 19008KT 10SM CLR M03/M07 A3014 RMK AO2 SLP220 T10281072
KSNY 221153Z AUTO 22009KT 10SM CLR M03/M07 A3012 RMK AO2 SLP211 T10331072 10028 21056 55001
KSNY 221053Z AUTO 25009KT 10SM CLR M03/M07 A3011 RMK AO2 SLP205 T10331072
KSNY 220953Z AUTO 24008KT 10SM CLR M06/M09 A3012 RMK AO2 SLP208 T10561089
KSNY 220853Z AUTO 30008KT 10SM CLR M03/M08 A3012 RMK AO2 SLP204 T10331083 53005
KSNY 220753Z AUTO 30007KT 10SM CLR M02/M09 A3011 RMK AO2 SLP196 T10171089
KSNY 220653Z AUTO 28009KT 10SM CLR 02/M08 A3010 RMK AO2 SLP189 T00221078 401440006
KSNY 220553Z AUTO 28009KT 10SM CLR 03/M08 A3011 RMK AO2 SLP190 T00281083 10100 20006 51005